createdAt,value
2023-08-01T00:00:29.712Z,8.07
2023-08-01T00:15:32.938Z,8.50
2023-08-01T00:30:34.870Z,8.05
2023-08-01T00:45:36.918Z,8.60
2023-08-01T01:00:40.359Z,8.18
2023-08-01T01:15:42.733Z,8.48
2023-08-01T01:30:44.955Z,8.00
2023-08-01T01:45:46.965Z,8.27
2023-08-01T02:00:50.219Z,8.30
2023-08-01T02:15:52.465Z,8.70
2023-08-01T02:30:54.444Z,8.30
2023-08-01T02:45:56.781Z,8.50
2023-08-01T03:00:58.781Z,7.85
2023-08-01T03:16:00.800Z,8.88
2023-08-01T03:31:03.299Z,8.00
2023-08-01T03:46:05.817Z,9.40
2023-08-01T04:01:07.844Z,8.57
2023-08-01T04:16:09.911Z,8.98
2023-08-01T04:31:11.941Z,9.30
2023-08-01T04:46:15.284Z,8.70
2023-08-01T05:01:17.541Z,8.85
2023-08-01T05:16:19.617Z,8.90
2023-08-01T05:31:21.649Z,8.68
2023-08-01T05:46:23.705Z,9.23
2023-08-01T06:01:26.031Z,8.82
2023-08-01T06:16:28.325Z,8.10
2023-08-01T06:31:30.472Z,8.63
2023-08-01T06:46:32.534Z,9.32
2023-08-01T07:01:34.635Z,8.00
2023-08-01T07:16:36.652Z,8.77
2023-08-01T07:31:38.690Z,8.88
2023-08-01T07:46:41.007Z,8.55
2023-08-01T08:01:43.434Z,8.25
2023-08-01T08:16:45.697Z,7.30
2023-08-01T08:31:48.679Z,8.32
2023-08-01T08:46:52.622Z,7.88
2023-08-01T09:01:54.654Z,7.35
2023-08-01T09:16:56.758Z,8.25
2023-08-01T09:31:58.721Z,7.78
2023-08-01T09:47:01.610Z,7.70
2023-08-01T10:02:03.635Z,7.20
2023-08-01T10:17:06.053Z,7.55
2023-08-01T10:32:08.323Z,7.22
2023-08-01T10:47:10.341Z,6.85
2023-08-01T11:02:12.339Z,7.75
2023-08-01T11:17:14.373Z,6.95
2023-08-01T11:32:16.328Z,7.93
2023-08-01T11:47:18.750Z,7.88
2023-08-01T12:02:25.072Z,8.27
2023-08-01T12:17:27.156Z,8.25
2023-08-01T12:32:29.182Z,8.07
2023-08-01T12:47:31.519Z,8.50
2023-08-01T13:02:33.599Z,8.18
2023-08-01T13:17:35.815Z,7.43
2023-08-01T13:32:37.809Z,7.72
2023-08-01T13:47:39.867Z,7.70
2023-08-01T14:02:42.015Z,8.35
2023-08-01T14:17:44.153Z,8.10
2023-08-01T14:32:46.185Z,7.88
2023-08-01T14:47:48.299Z,8.63
2023-08-01T15:02:50.552Z,8.07
2023-08-01T15:17:53.307Z,8.70
2023-08-01T15:32:55.338Z,8.48
2023-08-01T15:47:58.943Z,8.23
2023-08-01T16:03:01.142Z,7.93
2023-08-01T16:18:03.504Z,8.52
2023-08-01T16:33:05.648Z,8.00
2023-08-01T16:48:08.007Z,7.55
2023-08-01T17:03:10.056Z,7.50
2023-08-01T17:18:12.134Z,8.68
2023-08-01T17:33:14.227Z,8.45
2023-08-01T17:48:16.582Z,8.85
2023-08-01T18:03:18.732Z,8.23
2023-08-01T18:18:20.853Z,8.20
2023-08-01T18:33:22.995Z,7.90
2023-08-01T18:48:25.196Z,7.53
2023-08-01T19:03:28.397Z,8.10
2023-08-01T19:18:31.012Z,8.45
2023-08-01T19:33:33.106Z,7.63
2023-08-01T19:48:37.212Z,7.25
2023-08-01T20:03:42.157Z,7.53
2023-08-01T20:18:44.656Z,7.40
2023-08-01T20:33:46.731Z,7.30
2023-08-01T20:48:48.687Z,7.50
2023-08-01T21:03:50.779Z,7.70
2023-08-01T21:18:52.765Z,7.40
2023-08-01T21:33:55.018Z,7.00
2023-08-01T21:48:56.991Z,6.60
2023-08-01T22:03:59.009Z,6.68
2023-08-01T22:19:00.953Z,7.35
2023-08-01T22:34:02.963Z,7.15
2023-08-01T22:49:05.218Z,7.25
2023-08-01T23:04:07.177Z,6.90
2023-08-01T23:19:09.188Z,7.25
2023-08-01T23:34:11.272Z,7.32
2023-08-01T23:49:13.273Z,6.97
